Impros — D5BS7 — position and weather

sailwx.info

Track history (hours):
 
Tides and Currents Weather Stations Pressure Air Temp Water Temp Dewpoint Dewpoint Depression Visibility Wind Speed Wind Dir Waves Ship Positions

Impros

Last reported at 2016-Dec-21 07:28 UTC. Time now 2017-Mar-29 09:15 UTC.
Position N 02°02' E 102°10'.
Warning: this ship's position is months out of date.

Length 244 m; draft 7 m.

Type: Tanker. MMSI: 636015595.

Date/timePositionNaut miles runAvg speedWind from/ knotsBaromVisibWave heightAir tempDewpointWater temp
2016-Dec-21 07:28N 02°02' E 102°10'9 9.7
2016-Dec-21 06:33N 01°56' E 102°18'9 9.5
2016-Dec-21 05:33N 01°52' E 102°26'10 9.6
2016-Dec-21 04:30N 01°48' E 102°36'9 9.8
2016-Dec-21 03:33N 01°44' E 102°44'61 9.9
2016-Dec-20 21:23N 01°11' E 103°36'8 9.6
2016-Dec-20 20:33N 01°09' E 103°43'1111.2
2016-Dec-20 19:33N 01°13' E 103°53'1111.0
2016-Dec-20 18:31N 01°16' E 104°04'  
2016-Dec-18 06:08N 01°15' E 104°05'610.7
2016-Dec-18 05:33N 01°14' E 103°59'5 4.6
2016-Dec-18 04:30N 01°15' E 103°54'0 0.0
2016-Dec-18 03:33N 01°15' E 103°54'0 0.0
2016-Dec-18 02:33N 01°15' E 103°54'0 0.0
2016-Dec-18 01:33N 01°15' E 103°54'0 0.1
2016-Dec-18 00:33N 01°15' E 103°54'0 0.0
2016-Dec-17 23:30N 01°15' E 103°54'0 0.0
2016-Dec-17 22:33N 01°15' E 103°54'0 0.1
2016-Dec-17 21:23N 01°15' E 103°54'0 0.0
2016-Dec-17 20:29N 01°15' E 103°54'0 0.1
2016-Dec-17 19:26N 01°15' E 103°54'0 0.0
2016-Dec-17 18:29N 01°15' E 103°54'0 0.1
2016-Dec-17 17:29N 01°15' E 103°54'0 0.0
2016-Dec-17 16:29N 01°15' E 103°54'0 0.0
2016-Dec-17 15:32N 01°15' E 103°54'0 0.1
2016-Dec-17 14:32N 01°15' E 103°54'0 0.2
2016-Dec-17 13:32N 01°15' E 103°54'0 0.1
2016-Dec-17 12:32N 01°15' E 103°54'0 0.1
2016-Dec-17 11:32N 01°15' E 103°54'0 0.0
2016-Dec-17 10:32N 01°15' E 103°54'0 0.0
2016-Dec-17 09:32N 01°15' E 103°54'0 0.0
2016-Dec-17 08:29N 01°15' E 103°54'0 0.0
2016-Dec-17 07:26N 01°15' E 103°54'0 0.1
2016-Dec-17 05:29N 01°15' E 103°54'0 0.0
2016-Dec-17 03:32N 01°15' E 103°54'0 0.0
2016-Dec-17 02:29N 01°15' E 103°54'0 0.0
2016-Dec-17 00:30N 01°15' E 103°54'0 0.0
2016-Dec-16 23:33N 01°15' E 103°54'0 0.0
2016-Dec-16 22:33N 01°15' E 103°54'0 0.0
2016-Dec-16 21:27N 01°15' E 103°54'0 0.0
2016-Dec-16 20:27N 01°15' E 103°54'0 0.1
2016-Dec-16 19:33N 01°15' E 103°54'0 0.0
2016-Dec-16 18:27N 01°15' E 103°54'0 0.0
2016-Dec-16 17:33N 01°15' E 103°54'0 0.1
2016-Dec-16 16:33N 01°15' E 103°54'0 0.0
2016-Dec-16 15:27N 01°15' E 103°54'0 0.0
2016-Dec-16 11:33N 01°15' E 103°54'0 0.1
2016-Dec-16 10:32N 01°15' E 103°54'0 0.1
2016-Dec-16 09:23N 01°15' E 103°54'0 0.0
2016-Dec-16 08:29N 01°15' E 103°54'0 0.1
2016-Dec-16 07:29N 01°15' E 103°54'0 0.1
2016-Dec-16 06:32N 01°15' E 103°54'0 0.0
2016-Dec-16 05:32N 01°15' E 103°54'0 0.1
2016-Dec-16 01:20N 01°15' E 103°54'0 0.0
2016-Dec-16 00:23N 01°15' E 103°54'0 0.0
2016-Dec-15 23:32N 01°15' E 103°54'0 0.0
2016-Dec-15 22:26N 01°15' E 103°54'0 0.0
2016-Dec-15 21:32N 01°15' E 103°54'0 0.1
2016-Dec-15 20:29N 01°15' E 103°54'0 0.0
2016-Dec-15 19:08N 01°15' E 103°54'0 0.0
2016-Dec-15 17:20N 01°15' E 103°54'0 0.0
2016-Dec-15 11:29N 01°15' E 103°54'0 0.2
2016-Dec-15 10:26N 01°15' E 103°54'3 3.9
2016-Dec-15 09:33N 01°16' E 103°58'6 5.6
2016-Dec-15 08:29N 01°16' E 104°04'  
Track history (hours):
 
Tides and Currents Weather Stations Pressure Air Temp Water Temp Dewpoint Dewpoint Depression Visibility Wind Speed Wind Dir Waves Ship Positions

Impros

Last reported at 2016-Dec-21 07:28 UTC. Time now 2017-Mar-29 09:15 UTC.
Position N 02°02' E 102°10'.
Warning: this ship's position is months out of date.

Length 244 m; draft 7 m.

Type: Tanker. MMSI: 636015595.

Date/timePositionNaut miles runAvg speedWind from/ knotsBaromVisibWave heightAir tempDewpointWater temp
2016-Dec-21 07:28N 02°02' E 102°10'9 9.7
2016-Dec-21 06:33N 01°56' E 102°18'9 9.5
2016-Dec-21 05:33N 01°52' E 102°26'10 9.6
2016-Dec-21 04:30N 01°48' E 102°36'9 9.8
2016-Dec-21 03:33N 01°44' E 102°44'61 9.9
2016-Dec-20 21:23N 01°11' E 103°36'8 9.6
2016-Dec-20 20:33N 01°09' E 103°43'1111.2
2016-Dec-20 19:33N 01°13' E 103°53'1111.0
2016-Dec-20 18:31N 01°16' E 104°04'  
2016-Dec-18 06:08N 01°15' E 104°05'610.7
2016-Dec-18 05:33N 01°14' E 103°59'5 4.6
2016-Dec-18 04:30N 01°15' E 103°54'0 0.0
2016-Dec-18 03:33N 01°15' E 103°54'0 0.0
2016-Dec-18 02:33N 01°15' E 103°54'0 0.0
2016-Dec-18 01:33N 01°15' E 103°54'0 0.1
2016-Dec-18 00:33N 01°15' E 103°54'0 0.0
2016-Dec-17 23:30N 01°15' E 103°54'0 0.0
2016-Dec-17 22:33N 01°15' E 103°54'0 0.1
2016-Dec-17 21:23N 01°15' E 103°54'0 0.0
2016-Dec-17 20:29N 01°15' E 103°54'0 0.1
2016-Dec-17 19:26N 01°15' E 103°54'0 0.0
2016-Dec-17 18:29N 01°15' E 103°54'0 0.1
2016-Dec-17 17:29N 01°15' E 103°54'0 0.0
2016-Dec-17 16:29N 01°15' E 103°54'0 0.0
2016-Dec-17 15:32N 01°15' E 103°54'0 0.1
2016-Dec-17 14:32N 01°15' E 103°54'0 0.2
2016-Dec-17 13:32N 01°15' E 103°54'0 0.1
2016-Dec-17 12:32N 01°15' E 103°54'0 0.1
2016-Dec-17 11:32N 01°15' E 103°54'0 0.0
2016-Dec-17 10:32N 01°15' E 103°54'0 0.0
2016-Dec-17 09:32N 01°15' E 103°54'0 0.0
2016-Dec-17 08:29N 01°15' E 103°54'0 0.0
2016-Dec-17 07:26N 01°15' E 103°54'0 0.1
2016-Dec-17 05:29N 01°15' E 103°54'0 0.0
2016-Dec-17 03:32N 01°15' E 103°54'0 0.0
2016-Dec-17 02:29N 01°15' E 103°54'0 0.0
2016-Dec-17 00:30N 01°15' E 103°54'0 0.0
2016-Dec-16 23:33N 01°15' E 103°54'0 0.0
2016-Dec-16 22:33N 01°15' E 103°54'0 0.0
2016-Dec-16 21:27N 01°15' E 103°54'0 0.0
2016-Dec-16 20:27N 01°15' E 103°54'0 0.1
2016-Dec-16 19:33N 01°15' E 103°54'0 0.0
2016-Dec-16 18:27N 01°15' E 103°54'0 0.0
2016-Dec-16 17:33N 01°15' E 103°54'0 0.1
2016-Dec-16 16:33N 01°15' E 103°54'0 0.0
2016-Dec-16 15:27N 01°15' E 103°54'0 0.0
2016-Dec-16 11:33N 01°15' E 103°54'0 0.1
2016-Dec-16 10:32N 01°15' E 103°54'0 0.1
2016-Dec-16 09:23N 01°15' E 103°54'0 0.0
2016-Dec-16 08:29N 01°15' E 103°54'0 0.1
2016-Dec-16 07:29N 01°15' E 103°54'0 0.1
2016-Dec-16 06:32N 01°15' E 103°54'0 0.0
2016-Dec-16 05:32N 01°15' E 103°54'0 0.1
2016-Dec-16 01:20N 01°15' E 103°54'0 0.0
2016-Dec-16 00:23N 01°15' E 103°54'0 0.0
2016-Dec-15 23:32N 01°15' E 103°54'0 0.0
2016-Dec-15 22:26N 01°15' E 103°54'0 0.0
2016-Dec-15 21:32N 01°15' E 103°54'0 0.1
2016-Dec-15 20:29N 01°15' E 103°54'0 0.0
2016-Dec-15 19:08N 01°15' E 103°54'0 0.0
2016-Dec-15 17:20N 01°15' E 103°54'0 0.0
2016-Dec-15 11:29N 01°15' E 103°54'0 0.2
2016-Dec-15 10:26N 01°15' E 103°54'3 3.9
2016-Dec-15 09:33N 01°16' E 103°58'6 5.6
2016-Dec-15 08:29N 01°16' E 104°04'  

Dump ship's entire track history